Time;durP1;ratioP1;P1;durP2;ratioP2;P2;SDS_P1;SDS_P2;PMS_P1;PMS_P2;Temp;Humidity;BMP_temperature;BMP_pressure;BME280_temperature;BME280_humidity;BME280_pressure;Samples;Min_cycle;Max_cycle;Signal;HPM_P1;HPM_P2
2023/12/12 00:00:56;;;;;;;15.88;4.97;;;8.60;99.90;;;;;;6277683;28;20601;-79
2023/12/12 00:03:58;;;;;;;23.38;6.03;;;8.70;99.90;;;;;;6267872;28;20386;-80
2023/12/12 00:07:00;;;;;;;24.85;5.45;;;8.80;99.90;;;;;;6293844;28;20396;-81
2023/12/12 00:10:01;;;;;;;17.35;4.97;;;9.00;99.90;;;;;;6270547;28;20060;-80
2023/12/12 00:13:03;;;;;;;18.77;5.60;;;9.00;99.90;;;;;;6255023;28;20531;-79
2023/12/12 00:16:06;;;;;;;20.50;6.05;;;9.00;99.90;;;;;;6293516;28;20048;-79
2023/12/12 00:19:08;;;;;;;22.13;6.38;;;9.00;99.90;;;;;;6269644;28;20480;-79
2023/12/12 00:22:10;;;;;;;16.92;4.95;;;9.10;99.90;;;;;;6280632;28;20049;-79
2023/12/12 00:25:12;;;;;;;16.25;5.30;;;9.20;99.90;;;;;;6244511;28;20416;-79
2023/12/12 00:28:14;;;;;;;17.77;5.07;;;9.20;99.90;;;;;;6282595;28;20126;-80
2023/12/12 00:31:15;;;;;;;17.75;5.32;;;9.20;99.90;;;;;;6269433;28;20123;-79
2023/12/12 00:34:17;;;;;;;18.92;5.20;;;9.20;99.90;;;;;;6264043;28;20591;-80
2023/12/12 00:37:19;;;;;;;18.00;4.80;;;9.30;99.90;;;;;;6257810;28;20068;-80
2023/12/12 00:40:20;;;;;;;19.65;5.05;;;9.40;99.90;;;;;;6292106;28;20125;-79
2023/12/12 00:43:22;;;;;;;17.92;4.90;;;9.50;99.90;;;;;;6276774;28;20052;-81
2023/12/12 00:46:24;;;;;;;16.13;4.78;;;9.50;99.90;;;;;;6292749;28;20053;-80
2023/12/12 00:49:26;;;;;;;15.00;4.40;;;9.50;99.90;;;;;;6262121;28;20049;-80
2023/12/12 00:52:29;;;;;;;14.57;4.82;;;9.60;99.90;;;;;;6292365;28;20075;-81
2023/12/12 00:55:31;;;;;;;14.43;4.47;;;9.60;99.90;;;;;;6268751;28;20052;-81
2023/12/12 00:58:33;;;;;;;16.55;4.65;;;9.60;99.90;;;;;;6280940;28;20049;-80
2023/12/12 01:01:34;;;;;;;13.13;4.18;;;9.70;99.90;;;;;;6282586;28;20063;-80
2023/12/12 01:04:37;;;;;;;16.48;4.57;;;9.70;99.90;;;;;;6292835;28;20048;-81
2023/12/12 01:07:39;;;;;;;14.18;4.57;;;9.70;99.90;;;;;;6268984;28;20061;-80
2023/12/12 01:10:41;;;;;;;15.43;4.50;;;9.70;99.90;;;;;;6293028;28;20052;-80
2023/12/12 01:13:42;;;;;;;15.48;4.57;;;9.70;99.90;;;;;;6277832;28;20052;-80
2023/12/12 01:16:44;;;;;;;13.30;4.45;;;9.80;99.90;;;;;;6266950;28;20136;-80
2023/12/12 01:19:46;;;;;;;10.73;4.13;;;9.80;99.90;;;;;;6292486;28;20838;-80
2023/12/12 01:22:47;;;;;;;11.05;4.05;;;9.80;99.90;;;;;;6268804;28;20064;-81
2023/12/12 01:25:49;;;;;;;13.93;3.25;;;9.90;99.90;;;;;;6292513;28;20052;-81
2023/12/12 01:28:51;;;;;;;12.65;3.42;;;9.90;99.90;;;;;;6268881;28;20495;-79
2023/12/12 01:31:52;;;;;;;16.58;4.20;;;10.00;99.90;;;;;;6286574;28;20412;-80
2023/12/12 01:34:54;;;;;;;10.13;3.35;;;10.00;99.90;;;;;;6275337;28;20088;-80
2023/12/12 01:37:55;;;;;;;10.05;3.00;;;9.90;99.90;;;;;;6267129;28;20416;-80
2023/12/12 01:40:57;;;;;;;9.70;2.83;;;9.90;99.90;;;;;;6291603;28;20151;-80
2023/12/12 01:43:59;;;;;;;15.50;3.42;;;10.00;99.90;;;;;;6277666;28;20045;-80
2023/12/12 01:47:00;;;;;;;9.20;3.10;;;10.00;99.90;;;;;;6268453;28;20424;-81
2023/12/12 01:50:02;;;;;;;11.80;3.28;;;10.00;99.90;;;;;;6297066;28;20062;-80
2023/12/12 01:53:03;;;;;;;11.50;3.20;;;10.10;99.90;;;;;;6272122;28;20057;-81
2023/12/12 01:56:05;;;;;;;16.42;3.50;;;10.10;99.90;;;;;;6297223;28;20423;-80
2023/12/12 01:59:07;;;;;;;9.05;2.83;;;10.10;99.90;;;;;;6275123;28;20495;-81
2023/12/12 02:02:08;;;;;;;8.55;2.50;;;10.20;99.90;;;;;;6272607;28;20489;-81
2023/12/12 02:05:10;;;;;;;8.48;2.95;;;10.20;99.90;;;;;;6289651;28;20049;-80
2023/12/12 02:08:11;;;;;;;12.63;3.35;;;10.20;99.90;;;;;;6297592;28;20059;-80
2023/12/12 02:11:13;;;;;;;8.73;3.03;;;10.10;99.90;;;;;;6274198;28;20519;-80
2023/12/12 02:14:15;;;;;;;11.18;2.85;;;10.10;99.90;;;;;;6281008;28;20485;-81
2023/12/12 02:17:16;;;;;;;12.32;3.45;;;10.20;99.90;;;;;;6289397;28;20467;-82
2023/12/12 02:20:18;;;;;;;14.95;3.50;;;10.20;99.90;;;;;;6297869;28;20135;-81
2023/12/12 02:23:19;;;;;;;14.63;3.38;;;10.20;99.90;;;;;;6273384;28;20053;-80
2023/12/12 02:26:21;;;;;;;15.15;3.75;;;10.20;99.90;;;;;;6297887;28;20052;-80
2023/12/12 02:29:22;;;;;;;9.25;3.47;;;10.20;99.90;;;;;;6276867;28;20130;-80
2023/12/12 02:32:24;;;;;;;14.05;3.58;;;10.10;99.90;;;;;;6286475;28;20052;-80
2023/12/12 02:35:27;;;;;;;10.93;3.80;;;10.10;99.90;;;;;;6284713;28;20571;-80
2023/12/12 02:38:28;;;;;;;11.65;3.63;;;10.20;99.90;;;;;;6296454;28;20056;-81
2023/12/12 02:41:30;;;;;;;9.15;3.55;;;10.10;99.90;;;;;;6272530;28;20435;-79
2023/12/12 02:44:31;;;;;;;10.55;3.28;;;10.10;99.90;;;;;;6280617;28;20057;-81
2023/12/12 02:47:33;;;;;;;10.48;3.15;;;10.10;99.90;;;;;;6295866;28;20059;-81
2023/12/12 02:50:35;;;;;;;9.57;3.25;;;10.20;99.90;;;;;;6272153;28;20074;-80
2023/12/12 02:53:36;;;;;;;9.82;2.97;;;10.20;99.90;;;;;;6295924;28;20072;-79
2023/12/12 02:56:38;;;;;;;8.10;2.97;;;10.20;99.90;;;;;;6270455;28;20052;-80
2023/12/12 02:59:40;;;;;;;7.90;2.80;;;10.20;99.90;;;;;;6269905;28;20052;-80
2023/12/12 03:02:41;;;;;;;9.20;3.25;;;10.10;99.90;;;;;;6280503;28;20060;-81
2023/12/12 03:05:43;;;;;;;9.38;3.10;;;10.10;99.90;;;;;;6284912;28;20063;-80
2023/12/12 03:08:45;;;;;;;8.43;3.33;;;10.10;99.90;;;;;;6284267;28;20060;-80
2023/12/12 03:11:46;;;;;;;10.38;3.50;;;10.10;99.90;;;;;;6254101;28;20512;-80
2023/12/12 03:14:48;;;;;;;11.93;3.75;;;10.20;99.90;;;;;;6293195;28;20044;-81
2023/12/12 03:17:49;;;;;;;14.30;4.07;;;10.10;99.90;;;;;;6271264;28;20053;-80
2023/12/12 03:20:51;;;;;;;9.30;3.63;;;10.20;99.90;;;;;;6255734;28;20095;-80
2023/12/12 03:23:53;;;;;;;12.20;4.53;;;10.10;99.90;;;;;;6294830;28;20203;-81
2023/12/12 03:26:55;;;;;;;14.32;4.53;;;10.20;99.90;;;;;;6271225;28;20401;-80
2023/12/12 03:29:56;;;;;;;14.82;4.50;;;10.20;99.90;;;;;;6276006;28;20216;-80
2023/12/12 03:32:58;;;;;;;10.15;4.35;;;10.30;99.90;;;;;;6277203;28;20056;-80
2023/12/12 03:35:59;;;;;;;14.38;4.38;;;10.30;99.90;;;;;;6294625;28;20181;-80
2023/12/12 03:39:01;;;;;;;12.52;4.63;;;10.40;99.90;;;;;;6264767;28;20049;-81
2023/12/12 03:42:03;;;;;;;18.25;5.35;;;10.40;99.90;;;;;;6244759;28;20061;-80
2023/12/12 03:45:07;;;;;;;12.20;5.18;;;10.50;99.90;;;;;;6294092;28;20664;-81
2023/12/12 03:48:08;;;;;;;17.42;5.15;;;10.50;99.90;;;;;;6270795;28;20048;-81
2023/12/12 03:51:10;;;;;;;15.25;5.53;;;10.60;99.90;;;;;;6269760;28;20056;-81
2023/12/12 03:54:12;;;;;;;12.93;4.47;;;10.60;99.90;;;;;;6292859;28;20419;-80
2023/12/12 03:57:13;;;;;;;12.43;4.72;;;10.60;99.90;;;;;;6270268;28;20061;-82
2023/12/12 04:00:15;;;;;;;10.82;4.32;;;10.60;99.90;;;;;;6269987;28;20080;-81
2023/12/12 04:03:17;;;;;;;13.48;3.92;;;10.70;99.90;;;;;;6274377;28;20057;-81
2023/12/12 04:06:18;;;;;;;8.45;3.83;;;10.70;99.90;;;;;;6293775;28;20056;-80
2023/12/12 04:09:20;;;;;;;9.57;3.50;;;10.80;99.90;;;;;;6261891;28;20512;-80
2023/12/12 04:12:22;;;;;;;7.75;3.38;;;10.80;99.90;;;;;;6244323;28;20509;-82
2023/12/12 04:15:23;;;;;;;10.85;3.50;;;10.70;99.90;;;;;;6292996;28;20109;-81
2023/12/12 04:18:25;;;;;;;10.35;3.13;;;10.70;99.90;;;;;;6244999;28;20398;-80
2023/12/12 04:21:27;;;;;;;8.15;2.88;;;10.70;99.90;;;;;;6264650;28;20052;-81
2023/12/12 04:24:28;;;;;;;8.00;2.97;;;10.70;99.90;;;;;;6293400;28;20056;-80
2023/12/12 04:27:30;;;;;;;6.78;2.45;;;10.80;99.90;;;;;;6269334;28;20052;-81
2023/12/12 04:30:32;;;;;;;6.30;1.77;;;10.70;99.90;;;;;;6255860;28;20060;-80
2023/12/12 04:33:33;;;;;;;4.07;2.10;;;10.70;99.90;;;;;;6269368;28;20053;-79
2023/12/12 04:36:35;;;;;;;5.85;1.95;;;10.80;99.90;;;;;;6286469;28;20493;-80
2023/12/12 04:39:37;;;;;;;4.00;1.67;;;10.80;99.90;;;;;;6264450;28;20397;-80
2023/12/12 04:42:38;;;;;;;4.15;1.52;;;10.80;99.90;;;;;;6290265;28;20063;-83
2023/12/12 04:45:40;;;;;;;3.90;1.38;;;10.90;99.90;;;;;;6269405;28;20059;-81
2023/12/12 04:48:42;;;;;;;6.75;1.88;;;10.90;99.90;;;;;;6244218;28;20505;-82
2023/12/12 04:51:44;;;;;;;4.13;1.73;;;10.90;99.90;;;;;;6283104;28;20056;-82
2023/12/12 04:54:45;;;;;;;5.53;1.60;;;10.90;99.90;;;;;;6248102;28;20049;-79
2023/12/12 04:57:47;;;;;;;5.75;2.00;;;11.00;99.90;;;;;;6289176;28;20073;-79
2023/12/12 05:00:48;;;;;;;7.28;2.08;;;11.00;99.90;;;;;;6269401;28;20068;-80
2023/12/12 05:03:50;;;;;;;6.97;1.92;;;11.00;99.90;;;;;;6267078;28;20057;-79
2023/12/12 05:06:52;;;;;;;7.90;2.13;;;11.00;99.90;;;;;;6272115;28;20056;-79
2023/12/12 05:09:53;;;;;;;6.30;1.77;;;11.00;99.90;;;;;;6292868;28;20060;-82
2023/12/12 05:12:55;;;;;;;5.38;2.00;;;11.00;99.90;;;;;;6269765;28;20051;-81
2023/12/12 05:15:57;;;;;;;6.22;1.63;;;11.00;99.90;;;;;;6293594;28;20110;-79
2023/12/12 05:18:59;;;;;;;6.40;1.98;;;11.00;99.90;;;;;;6267574;28;20068;-78
2023/12/12 05:22:03;;;;;;;9.95;1.90;;;11.10;99.90;;;;;;6291275;28;20059;-79
2023/12/12 05:25:05;;;;;;;7.85;2.50;;;11.10;99.90;;;;;;6268848;28;20059;-80
2023/12/12 05:28:06;;;;;;;7.47;1.80;;;11.10;99.90;;;;;;6283769;28;20072;-80
2023/12/12 05:31:08;;;;;;;6.13;1.73;;;11.10;99.90;;;;;;6265402;28;20053;-80
2023/12/12 05:34:10;;;;;;;6.75;2.00;;;11.20;99.90;;;;;;6291814;28;20127;-80
2023/12/12 05:37:11;;;;;;;8.00;2.08;;;11.20;99.90;;;;;;6267060;28;20191;-80
2023/12/12 05:40:14;;;;;;;7.38;1.60;;;11.20;99.90;;;;;;6292211;28;20135;-80
2023/12/12 05:43:16;;;;;;;6.18;1.85;;;11.20;99.90;;;;;;6271793;28;20048;-82
2023/12/12 05:46:17;;;;;;;6.57;1.60;;;11.20;99.90;;;;;;6293682;28;20059;-80
2023/12/12 05:49:21;;;;;;;5.82;1.73;;;11.10;99.90;;;;;;6268439;28;20461;-80
2023/12/12 05:52:23;;;;;;;7.35;1.52;;;11.10;99.90;;;;;;6272549;28;20740;-80
2023/12/12 05:55:24;;;;;;;3.97;1.70;;;11.10;99.90;;;;;;6269743;28;20049;-80
2023/12/12 05:58:26;;;;;;;5.20;1.70;;;11.10;99.90;;;;;;6277319;28;20045;-80
2023/12/12 06:01:27;;;;;;;9.00;1.98;;;11.10;99.90;;;;;;6278685;28;20061;-80
2023/12/12 06:04:29;;;;;;;8.13;1.80;;;11.10;99.90;;;;;;6261089;28;20064;-81
2023/12/12 06:07:31;;;;;;;5.15;0.98;;;11.20;99.90;;;;;;6267718;28;20049;-80
2023/12/12 06:10:33;;;;;;;3.75;0.90;;;11.10;99.90;;;;;;6291947;28;20057;-80
2023/12/12 06:13:35;;;;;;;4.20;0.80;;;11.00;99.90;;;;;;6275894;28;20052;-80
2023/12/12 06:16:37;;;;;;;3.42;0.73;;;10.90;99.90;;;;;;6260567;28;20056;-81
2023/12/12 06:19:39;;;;;;;2.25;0.70;;;10.80;99.90;;;;;;6273477;28;20049;-80
2023/12/12 06:22:41;;;;;;;2.83;1.00;;;10.80;99.90;;;;;;6251920;28;20405;-81
2023/12/12 06:25:43;;;;;;;2.78;0.70;;;10.70;99.90;;;;;;6275578;28;20146;-80
2023/12/12 06:28:44;;;;;;;4.00;0.75;;;10.70;99.90;;;;;;6255317;28;20054;-80
2023/12/12 06:31:46;;;;;;;3.30;0.90;;;10.70;99.90;;;;;;6247090;28;20052;-82
2023/12/12 06:34:48;;;;;;;2.67;0.60;;;10.70;99.90;;;;;;6250124;28;20853;-81
2023/12/12 06:37:50;;;;;;;4.15;0.88;;;10.60;99.90;;;;;;6279662;28;20064;-79
2023/12/12 06:40:52;;;;;;;4.15;0.80;;;10.60;99.90;;;;;;6294608;28;20064;-81
2023/12/12 06:43:53;;;;;;;4.68;1.05;;;10.60;99.90;;;;;;6284776;28;20086;-81
2023/12/12 06:46:55;;;;;;;3.20;0.80;;;10.50;99.90;;;;;;6272178;28;20500;-81
2023/12/12 06:49:57;;;;;;;3.90;1.10;;;10.50;99.90;;;;;;6296129;28;20411;-81
2023/12/12 06:52:58;;;;;;;4.50;1.10;;;10.50;99.90;;;;;;6271877;28;20102;-81
2023/12/12 06:56:00;;;;;;;5.03;1.15;;;10.50;99.90;;;;;;6295695;28;20060;-82
2023/12/12 06:59:02;;;;;;;3.70;0.93;;;10.50;99.90;;;;;;6284177;28;20048;-81
2023/12/12 07:02:03;;;;;;;3.38;1.20;;;10.40;99.90;;;;;;6271945;28;20096;-82
2023/12/12 07:05:05;;;;;;;4.07;1.38;;;10.50;99.90;;;;;;6295934;28;20044;-82
2023/12/12 07:08:07;;;;;;;5.43;1.60;;;10.40;99.90;;;;;;6271691;28;20053;-82
2023/12/12 07:11:09;;;;;;;5.20;1.42;;;10.30;99.90;;;;;;6295705;28;20060;-82
2023/12/12 07:14:10;;;;;;;5.15;1.40;;;10.30;99.90;;;;;;6283824;28;20169;-82
2023/12/12 07:17:12;;;;;;;4.38;1.58;;;10.30;99.90;;;;;;6271518;28;20052;-82
2023/12/12 07:20:14;;;;;;;3.97;1.60;;;10.30;99.90;;;;;;6295117;28;20045;-81
2023/12/12 07:23:16;;;;;;;3.38;1.40;;;10.30;99.90;;;;;;6270982;28;20432;-82
2023/12/12 07:26:21;;;;;;;4.10;1.35;;;10.30;99.90;;;;;;6295078;28;20092;-82
2023/12/12 07:29:22;;;;;;;6.35;1.55;;;10.20;99.90;;;;;;6285447;28;20056;-82
2023/12/12 07:32:26;;;;;;;6.30;1.42;;;10.20;99.90;;;;;;6270823;28;20483;-81
2023/12/12 07:35:28;;;;;;;3.88;1.60;;;10.10;99.90;;;;;;6294824;28;20139;-81
2023/12/12 07:38:30;;;;;;;4.85;1.30;;;10.10;99.90;;;;;;6269070;28;20060;-81
2023/12/12 07:41:31;;;;;;;4.72;1.88;;;10.10;99.90;;;;;;6294527;28;20049;-82
2023/12/12 07:44:33;;;;;;;7.63;1.40;;;10.10;99.90;;;;;;6269724;28;20053;-81
2023/12/12 07:47:35;;;;;;;6.63;1.63;;;10.10;99.90;;;;;;6294368;28;20812;-81
2023/12/12 07:50:43;;;;;;;3.80;1.30;;;10.00;99.90;;;;;;6245714;28;20053;-83
2023/12/12 07:53:45;;;;;;;2.63;1.23;;;10.00;99.90;;;;;;6293187;28;20476;-83
2023/12/12 07:56:47;;;;;;;4.47;1.75;;;10.00;99.90;;;;;;6268712;28;20138;-81
2023/12/12 07:59:49;;;;;;;3.22;1.30;;;10.10;99.90;;;;;;6292266;28;20052;-81
2023/12/12 08:02:50;;;;;;;4.90;1.83;;;10.10;99.90;;;;;;6268830;28;20068;-81
2023/12/12 08:05:52;;;;;;;5.13;1.83;;;10.00;99.90;;;;;;6292708;28;20392;-81
2023/12/12 08:08:53;;;;;;;3.65;1.38;;;10.10;99.90;;;;;;6270152;28;20143;-81
2023/12/12 08:11:55;;;;;;;6.25;1.90;;;10.20;99.90;;;;;;6293804;28;20511;-82
2023/12/12 08:14:57;;;;;;;6.13;1.90;;;10.20;99.90;;;;;;6266300;28;20060;-82
2023/12/12 08:17:59;;;;;;;5.38;1.70;;;10.30;99.90;;;;;;6293402;28;20091;-89
2023/12/12 08:21:00;;;;;;;3.92;1.65;;;10.20;99.90;;;;;;6275517;28;20127;-89
2023/12/12 08:24:03;;;;;;;4.50;1.38;;;10.30;99.90;;;;;;6302206;28;20056;-91
2023/12/12 08:27:06;;;;;;;6.03;1.65;;;10.30;99.90;;;;;;6276630;28;20381;-83
2023/12/12 08:30:08;;;;;;;9.07;1.70;;;10.30;99.90;;;;;;6287859;28;20056;-82
2023/12/12 08:33:10;;;;;;;8.18;1.90;;;10.30;99.90;;;;;;6269029;28;20049;-82
2023/12/12 08:36:12;;;;;;;7.25;2.25;;;10.30;99.90;;;;;;6292639;28;20056;-83
2023/12/12 08:39:14;;;;;;;14.80;2.42;;;10.30;99.90;;;;;;6267569;28;20056;-81
2023/12/12 08:42:16;;;;;;;6.88;2.28;;;10.40;99.90;;;;;;6291635;28;20711;-84
2023/12/12 08:45:17;;;;;;;12.60;2.33;;;10.40;99.90;;;;;;6266000;28;20101;-83
2023/12/12 08:48:19;;;;;;;14.15;2.88;;;10.50;99.90;;;;;;6294919;28;20455;-88
2023/12/12 08:51:21;;;;;;;13.63;2.30;;;10.50;99.90;;;;;;6275654;28;20055;-88
2023/12/12 08:54:24;;;;;;;18.58;3.25;;;10.60;99.90;;;;;;6267968;28;20048;-86
2023/12/12 08:57:25;;;;;;;16.77;2.70;;;10.70;99.90;;;;;;6290520;28;20048;-87
2023/12/12 09:00:27;;;;;;;15.43;2.22;;;10.70;99.90;;;;;;6290529;28;20065;-91
2023/12/12 09:03:29;;;;;;;15.70;2.65;;;10.80;99.90;;;;;;6271358;28;20052;-86
2023/12/12 09:06:31;;;;;;;17.70;2.30;;;10.80;99.90;;;;;;6293642;28;20126;-85
2023/12/12 09:09:32;;;;;;;20.05;2.55;;;10.90;99.90;;;;;;6293128;28;20040;-86
2023/12/12 09:12:34;;;;;;;9.27;1.73;;;10.90;99.90;;;;;;6271093;28;20053;-86
2023/12/12 09:15:35;;;;;;;14.73;1.88;;;11.00;99.90;;;;;;6293573;28;20044;-85
2023/12/12 09:18:37;;;;;;;12.82;2.08;;;11.10;99.90;;;;;;6259830;28;20056;-87
2023/12/12 09:21:39;;;;;;;10.35;1.88;;;11.00;99.90;;;;;;6293289;28;20049;-86
2023/12/12 09:24:41;;;;;;;21.90;2.58;;;11.30;99.90;;;;;;6269326;28;20507;-85
2023/12/12 09:27:43;;;;;;;11.00;1.77;;;11.30;99.90;;;;;;6279640;28;20066;-85
2023/12/12 09:30:45;;;;;;;13.70;1.95;;;11.40;99.90;;;;;;6292178;28;20427;-85
2023/12/12 09:33:47;;;;;;;14.27;2.05;;;11.50;99.90;;;;;;6247263;28;20048;-86
2023/12/12 09:36:50;;;;;;;11.55;2.15;;;11.60;99.90;;;;;;6293840;28;20061;-87
2023/12/12 09:39:52;;;;;;;13.98;2.08;;;11.80;99.90;;;;;;6280562;28;20148;-85
2023/12/12 09:42:53;;;;;;;14.70;2.40;;;12.10;99.90;;;;;;6272175;28;20408;-87
2023/12/12 09:45:55;;;;;;;11.80;2.00;;;12.40;99.90;;;;;;6274133;28;20049;-87
2023/12/12 09:48:57;;;;;;;15.43;2.00;;;12.20;99.90;;;;;;6292870;28;20047;-86
2023/12/12 09:51:59;;;;;;;16.55;2.15;;;12.10;99.90;;;;;;6272035;28;20821;-86
2023/12/12 09:55:00;;;;;;;11.82;1.95;;;12.10;99.90;;;;;;6294746;28;20052;-88
2023/12/12 09:58:02;;;;;;;14.75;3.47;;;12.00;99.90;;;;;;6272417;28;20097;-85
2023/12/12 10:01:04;;;;;;;15.15;2.53;;;11.90;99.90;;;;;;6287832;28;20061;-90
2023/12/12 10:04:05;;;;;;;20.48;3.20;;;12.20;99.90;;;;;;6296963;28;20060;-89
2023/12/12 10:07:07;;;;;;;18.42;2.45;;;12.50;99.90;;;;;;6297410;28;20052;-90
2023/12/12 10:10:10;;;;;;;17.63;2.50;;;12.50;99.90;;;;;;6250888;28;20064;-85
2023/12/12 10:13:11;;;;;;;23.63;2.70;;;12.80;99.90;;;;;;6262032;28;20237;-89
2023/12/12 10:16:13;;;;;;;12.18;2.35;;;12.90;99.90;;;;;;6300195;28;20060;-89
2023/12/12 10:19:16;;;;;;;12.95;2.20;;;12.90;99.90;;;;;;6277025;28;20041;-91
2023/12/12 10:22:19;;;;;;;14.00;2.72;;;12.70;99.90;;;;;;6301509;28;20052;-91
2023/12/12 10:25:22;;;;;;;13.15;2.20;;;12.80;99.90;;;;;;6278367;28;20048;-90
2023/12/12 10:28:24;;;;;;;14.73;2.65;;;12.90;99.90;;;;;;6290436;28;20049;-90
2023/12/12 10:31:29;;;;;;;17.08;2.55;;;12.80;99.90;;;;;;6300541;28;20055;-88
2023/12/12 10:34:31;;;;;;;12.02;1.80;;;13.10;99.90;;;;;;6278253;28;20060;-89
2023/12/12 10:37:33;;;;;;;21.92;2.47;;;13.00;99.90;;;;;;6302006;28;20063;-90
2023/12/12 10:40:35;;;;;;;19.77;2.38;;;12.50;99.90;;;;;;6277221;28;20136;-89
2023/12/12 10:43:37;;;;;;;17.10;3.78;;;12.30;99.90;;;;;;6288468;28;20055;-89
2023/12/12 10:46:40;;;;;;;22.48;2.92;;;12.10;99.90;;;;;;6300126;28;20048;-89
2023/12/12 10:49:42;;;;;;;21.52;3.42;;;11.90;99.90;;;;;;6277797;28;20104;-90
2023/12/12 10:52:44;;;;;;;17.92;3.22;;;11.70;99.90;;;;;;6288874;28;20443;-89
2023/12/12 10:55:45;;;;;;;24.45;4.10;;;11.60;99.90;;;;;;6300845;28;20058;-88
2023/12/12 10:58:48;;;;;;;20.48;2.88;;;11.80;99.90;;;;;;6286778;28;20060;-89
2023/12/12 11:01:50;;;;;;;13.63;2.45;;;12.50;99.90;;;;;;6291197;28;20071;-90
2023/12/12 11:04:52;;;;;;;17.90;2.75;;;12.80;99.90;;;;;;6276224;28;20049;-90
2023/12/12 11:07:54;;;;;;;18.95;3.50;;;13.20;99.90;;;;;;6300632;28;20496;-91
2023/12/12 11:10:56;;;;;;;21.10;2.67;;;13.10;99.90;;;;;;6276576;28;20493;-90
2023/12/12 11:14:00;;;;;;;21.00;3.58;;;12.80;99.90;;;;;;6284287;28;20049;-89
2023/12/12 11:17:01;;;;;;;22.67;3.22;;;12.60;99.90;;;;;;6299146;28;20514;-89
2023/12/12 11:20:04;;;;;;;20.35;3.05;;;12.40;99.90;;;;;;6275555;28;20546;-89
2023/12/12 11:23:07;;;;;;;31.65;4.53;;;12.20;99.90;;;;;;6300309;28;20071;-89
2023/12/12 11:26:09;;;;;;;29.75;4.35;;;12.00;99.90;;;;;;6276034;28;20083;-88
2023/12/12 11:29:11;;;;;;;21.45;4.20;;;11.90;99.90;;;;;;6286670;28;20049;-86
2023/12/12 11:32:13;;;;;;;21.02;3.03;;;11.70;99.90;;;;;;6295418;28;20049;-84
2023/12/12 11:35:14;;;;;;;17.08;2.42;;;11.20;99.90;;;;;;6272211;28;20056;-85
2023/12/12 11:38:16;;;;;;;15.55;2.30;;;10.80;99.90;;;;;;6295532;28;20059;-86
2023/12/12 11:41:17;;;;;;;12.20;2.03;;;10.60;99.90;;;;;;6273698;28;20820;-87
2023/12/12 11:44:19;;;;;;;15.55;2.45;;;10.50;99.90;;;;;;6279385;28;20110;-87
2023/12/12 11:47:21;;;;;;;8.00;1.60;;;10.30;99.90;;;;;;6300015;28;20416;-88
2023/12/12 11:50:23;;;;;;;9.13;1.75;;;10.30;99.90;;;;;;6275436;28;20060;-90
2023/12/12 11:53:25;;;;;;;6.13;1.10;;;10.10;99.90;;;;;;6283938;28;20048;-89
2023/12/12 11:56:26;;;;;;;6.03;1.17;;;9.90;99.90;;;;;;6300002;28;20056;-89
2023/12/12 11:59:28;;;;;;;6.82;1.38;;;9.90;99.90;;;;;;6272754;28;20048;-89
2023/12/12 12:02:30;;;;;;;6.53;1.10;;;9.80;99.90;;;;;;6300126;28;20052;-87
2023/12/12 12:05:32;;;;;;;5.53;1.15;;;9.70;99.90;;;;;;6277353;28;20515;-91
2023/12/12 12:08:34;;;;;;;6.50;1.20;;;9.70;99.90;;;;;;6300142;28;20056;-90
2023/12/12 12:11:36;;;;;;;8.40;1.67;;;9.70;99.90;;;;;;6277148;28;20049;-91
2023/12/12 12:14:39;;;;;;;7.47;1.50;;;9.70;99.90;;;;;;6296642;28;20596;-89
2023/12/12 12:17:41;;;;;;;4.72;1.20;;;9.80;99.90;;;;;;6274324;28;20057;-89
2023/12/12 12:20:43;;;;;;;3.20;0.85;;;9.70;99.90;;;;;;6299528;28;20053;-87
2023/12/12 12:23:44;;;;;;;5.85;1.10;;;9.70;99.90;;;;;;6276305;28;20131;-88
2023/12/12 12:26:46;;;;;;;5.15;0.90;;;9.70;99.90;;;;;;6297780;28;20051;-88
2023/12/12 12:29:48;;;;;;;5.55;1.00;;;9.60;99.90;;;;;;6269114;28;20186;-87
2023/12/12 12:32:49;;;;;;;7.10;1.00;;;9.60;99.90;;;;;;6296318;28;20044;-87
2023/12/12 12:35:51;;;;;;;5.50;1.10;;;9.50;99.90;;;;;;6274263;28;20056;-87
2023/12/12 12:38:53;;;;;;;8.43;1.40;;;9.60;99.90;;;;;;6296022;28;20052;-87
2023/12/12 12:41:55;;;;;;;7.25;1.20;;;9.60;99.90;;;;;;6273180;28;20048;-88
2023/12/12 12:44:57;;;;;;;5.68;1.10;;;9.60;99.90;;;;;;6296531;28;20101;-87
2023/12/12 12:47:59;;;;;;;5.15;0.88;;;9.60;99.90;;;;;;6274115;28;20051;-88
2023/12/12 12:51:00;;;;;;;8.85;1.35;;;9.60;99.90;;;;;;6300217;28;20066;-88
2023/12/12 12:54:02;;;;;;;4.15;0.90;;;9.60;99.90;;;;;;6274496;28;20048;-89
2023/12/12 12:57:05;;;;;;;7.63;1.10;;;9.60;99.90;;;;;;6301637;28;20072;-89
2023/12/12 13:00:06;;;;;;;4.80;1.00;;;9.60;99.90;;;;;;6276147;28;20056;-88
2023/12/12 13:03:08;;;;;;;6.13;1.10;;;9.60;99.90;;;;;;6301777;28;20064;-88
2023/12/12 13:06:10;;;;;;;6.55;1.00;;;9.60;99.90;;;;;;6274443;28;20068;-87
2023/12/12 13:09:17;;;;;;;4.30;0.85;;;9.60;99.90;;;;;;6299661;28;20044;-89
2023/12/12 13:12:22;;;;;;;4.95;1.00;;;9.50;99.90;;;;;;6277000;28;20121;-89
2023/12/12 13:15:24;;;;;;;5.45;0.95;;;9.40;99.90;;;;;;6284256;28;20052;-87
2023/12/12 13:18:26;;;;;;;4.10;1.00;;;9.40;99.90;;;;;;6300572;28;20056;-88
2023/12/12 13:21:27;;;;;;;4.68;0.95;;;9.40;99.90;;;;;;6274625;28;20048;-89
2023/12/12 13:24:29;;;;;;;5.40;1.00;;;9.40;99.90;;;;;;6296879;28;20071;-90
2023/12/12 13:27:31;;;;;;;3.92;0.90;;;9.50;99.90;;;;;;6272433;28;20051;-90
2023/12/12 13:30:33;;;;;;;4.55;0.85;;;9.50;99.90;;;;;;6298655;28;20187;-88
2023/12/12 13:33:35;;;;;;;5.20;1.00;;;9.50;99.90;;;;;;6253520;28;20041;-89
2023/12/12 13:36:37;;;;;;;6.38;0.93;;;9.40;99.90;;;;;;6315032;28;20052;-87
2023/12/12 13:39:38;;;;;;;7.53;1.48;;;9.40;99.90;;;;;;6273340;28;20158;-88
2023/12/12 13:42:40;;;;;;;7.85;1.30;;;9.40;99.90;;;;;;6291918;28;20059;-87
2023/12/12 13:45:42;;;;;;;8.48;1.50;;;9.30;99.90;;;;;;6276781;28;20045;-91
2023/12/12 13:48:43;;;;;;;8.18;1.30;;;9.30;99.90;;;;;;6253401;28;20045;-91
2023/12/12 13:51:45;;;;;;;4.93;1.20;;;9.30;99.90;;;;;;6314994;28;20052;-89
2023/12/12 13:54:48;;;;;;;7.18;1.10;;;9.30;99.90;;;;;;6277751;28;20055;-90
2023/12/12 13:57:50;;;;;;;7.32;1.38;;;9.30;99.90;;;;;;6295666;28;20400;-90
2023/12/12 14:00:52;;;;;;;5.68;1.20;;;9.20;99.90;;;;;;6286819;28;20503;-90
2023/12/12 14:03:54;;;;;;;10.00;1.50;;;9.20;99.90;;;;;;6280028;28;20056;-94
2023/12/12 14:06:56;;;;;;;4.53;1.05;;;9.10;99.90;;;;;;6309822;28;20052;-94
2023/12/12 14:09:58;;;;;;;3.78;1.00;;;9.00;99.90;;;;;;6290730;28;20045;-94
2023/12/12 14:13:01;;;;;;;3.60;0.73;;;8.80;99.90;;;;;;6308263;28;20068;-95
2023/12/12 14:16:04;;;;;;;3.95;0.80;;;8.60;99.90;;;;;;6290488;28;20060;-93
2023/12/12 14:19:07;;;;;;;5.85;0.70;;;8.50;99.90;;;;;;6307897;28;20516;-94
2023/12/12 14:22:09;;;;;;;3.13;0.80;;;8.40;99.90;;;;;;6280208;28;20056;-92
2023/12/12 14:25:15;;;;;;;4.72;0.90;;;8.40;99.90;;;;;;6279014;28;20465;-92
2023/12/12 14:28:16;;;;;;;3.67;0.85;;;8.30;99.90;;;;;;6293157;28;20052;-92
2023/12/12 14:31:18;;;;;;;3.03;0.80;;;8.30;99.90;;;;;;6303308;28;20059;-91
2023/12/12 14:34:20;;;;;;;3.60;1.00;;;8.30;99.90;;;;;;6279572;28;20061;-92
2023/12/12 14:37:22;;;;;;;3.38;0.80;;;8.30;99.90;;;;;;6301581;28;20056;-92
2023/12/12 14:40:24;;;;;;;3.03;0.75;;;8.30;99.90;;;;;;6279424;28;20053;-91
2023/12/12 14:43:26;;;;;;;3.50;0.70;;;8.30;99.90;;;;;;6291746;28;20041;-91
2023/12/12 14:46:27;;;;;;;4.43;0.80;;;8.40;99.90;;;;;;6301316;28;20060;-91
2023/12/12 14:49:29;;;;;;;3.03;0.70;;;8.40;99.90;;;;;;6278384;28;20408;-92
2023/12/12 14:52:31;;;;;;;3.47;0.90;;;8.40;99.90;;;;;;6292103;28;20053;-91
2023/12/12 14:55:33;;;;;;;2.78;0.95;;;8.40;99.90;;;;;;6301388;28;20065;-92
2023/12/12 14:58:35;;;;;;;5.85;0.90;;;8.30;99.90;;;;;;6285224;28;20183;-91
2023/12/12 15:01:37;;;;;;;6.97;1.10;;;8.40;99.90;;;;;;6292333;28;20057;-90
2023/12/12 15:04:39;;;;;;;5.00;1.10;;;8.40;99.90;;;;;;6277706;28;20063;-89
2023/12/12 15:07:44;;;;;;;4.43;0.90;;;8.30;99.90;;;;;;6300777;28;20055;-89
2023/12/12 15:10:46;;;;;;;3.13;0.90;;;8.30;99.90;;;;;;6278158;28;20052;-91
2023/12/12 15:13:50;;;;;;;3.25;0.80;;;8.30;99.90;;;;;;6289053;28;20408;-90
2023/12/12 15:16:55;;;;;;;5.82;0.80;;;8.30;99.90;;;;;;6254439;28;20155;-89
2023/12/12 15:19:56;;;;;;;3.67;0.93;;;8.40;99.90;;;;;;6303905;28;20053;-92
2023/12/12 15:22:58;;;;;;;6.43;0.98;;;8.40;99.90;;;;;;6280345;28;20131;-92
2023/12/12 15:26:00;;;;;;;4.47;1.20;;;8.40;99.90;;;;;;6303533;28;20881;-92
2023/12/12 15:29:03;;;;;;;5.88;1.02;;;8.50;99.90;;;;;;6295117;28;20198;-91
2023/12/12 15:32:05;;;;;;;8.50;1.20;;;8.40;99.90;;;;;;6283576;28;20127;-92
2023/12/12 15:35:07;;;;;;;9.70;1.25;;;8.50;99.90;;;;;;6301891;28;20045;-93
2023/12/12 15:38:09;;;;;;;11.98;1.33;;;8.40;99.90;;;;;;6277026;28;20045;-93
2023/12/12 15:41:11;;;;;;;5.30;1.17;;;8.40;99.90;;;;;;6301273;28;20138;-92
2023/12/12 15:44:12;;;;;;;10.88;1.92;;;8.40;99.90;;;;;;6290290;28;20503;-92